This is the latest recevied weather packets stored in our database for station/object N4DWK. If no packets are shown the sender has not sent any weather packets the latest 10 day(s).
| Time | Temp. | Humidity | Pressure | Rain* | Wind** | Luminosity | Snow |
|---|---|---|---|---|---|---|---|
| 1777921810 | 25° C | 38% | 1012.9 hPa | 0 mm | - | 555 W/m² | - |
| 1777920910 | 23.89° C | 38% | 1013.2 hPa | 0 mm | - | 615 W/m² | - |
| 1777919110 | 23.33° C | 39% | 1013.4 hPa | 0 mm | - | 364 W/m² | - |
| 1777916110 | 22.78° C | 39% | 1013.8 hPa | 0 mm | - | 394 W/m² | - |
| 1777915210 | 22.22° C | 39% | 1014.1 hPa | 0 mm | - | 185 W/m² | - |
| 1777914910 | 22.78° C | 38% | 1014.2 hPa | 0 mm | - | 213 W/m² | - |
| 1777913710 | 23.89° C | 38% | 1014.5 hPa | 0 mm | - | 599 W/m² | - |
| 1777909210 | 20.56° C | 43% | 1015.2 hPa | 0 mm | - | 86 W/m² | - |
| 1777908010 | 20° C | 44% | 1015.4 hPa | 0 mm | - | 79 W/m² | - |
| 1777906509 | 18.89° C | 48% | 1015.6 hPa | 0 mm | - | 72 W/m² | - |
| 1777905909 | 18.33° C | 49% | 1015.6 hPa | 0 mm | - | 127 W/m² | - |
| 1777905611 | 18.33° C | 50% | 1015.6 hPa | 0 mm | - | 113 W/m² | - |
| 1777905309 | 17.78° C | 52% | 1015.6 hPa | 0 mm | - | 109 W/m² | - |
| 1777904710 | 17.22° C | 51% | 1015.6 hPa | 0 mm | - | 70 W/m² | - |
| 1777902909 | 16.11° C | 55% | 1015.9 hPa | 0 mm | - | 91 W/m² | - |
| 1777902309 | 16.11° C | 56% | 1015.9 hPa | 0 mm | - | 90 W/m² | - |
| 1777902010 | 15.56° C | 56% | 1015.9 hPa | 0 mm | - | 132 W/m² | - |
| 1777901708 | 15.56° C | 56% | 1015.9 hPa | 0 mm | - | 70 W/m² | - |
| 1777901109 | 15° C | 57% | 1016 hPa | 0 mm | - | 288 W/m² | - |
| 1777900809 | 14.44° C | 57% | 1016.1 hPa | 0 mm | - | 211 W/m² | - |
| 1777900510 | 14.44° C | 57% | 1016.1 hPa | 0 mm | - | 163 W/m² | - |
| 1777898109 | 13.33° C | 59% | 1016.3 hPa | 0 mm | - | 49 W/m² | - |
| 1777897808 | 13.33° C | 60% | 1016.3 hPa | 0 mm | - | 51 W/m² | - |
| 1777897509 | 12.78° C | 60% | 1016.4 hPa | 0 mm | - | 53 W/m² | - |
| 1777897209 | 12.78° C | 60% | 1016.5 hPa | 0 mm | - | 53 W/m² | - |
* Rain latest hour (hover to see other rain measurements)
** Current wind speed in m/s (hover to see current wind gust speed)